Time;durP1;ratioP1;P1;durP2;ratioP2;P2;SDS_P1;SDS_P2;PMS_P1;PMS_P2;Temp;Humidity;BMP_temperature;BMP_pressure;BME280_temperature;BME280_humidity;BME280_pressure;Samples;Min_cycle;Max_cycle;Signal;HPM_P1;HPM_P2
2021/06/04 00:00:33;;;;;;;9.05;5.13;;;18.30;35.40;;;;;;5012356;28;20057;-87
2021/06/04 00:03:05;;;;;;;9.68;5.20;;;18.30;35.50;;;;;;5010947;28;20032;-86
2021/06/04 00:05:33;;;;;;;15.07;5.43;;;18.30;35.70;;;;;;5011530;28;20042;-86
2021/06/04 00:07:59;;;;;;;9.88;5.45;;;18.20;35.90;;;;;;5012704;28;20120;-86
2021/06/04 00:10:34;;;;;;;8.70;4.80;;;18.20;36.00;;;;;;5012802;28;20428;-88
2021/06/04 00:13:21;;;;;;;9.30;5.00;;;18.30;36.40;;;;;;4994755;28;20553;-87
2021/06/04 00:15:50;;;;;;;9.73;5.80;;;18.30;36.60;;;;;;5011890;28;20481;-87
2021/06/04 00:18:17;;;;;;;9.02;5.22;;;18.30;36.60;;;;;;5012751;28;20025;-88
2021/06/04 00:20:45;;;;;;;11.68;5.50;;;18.30;36.80;;;;;;4997767;28;20189;-89
2021/06/04 00:23:11;;;;;;;10.70;5.63;;;18.40;36.90;;;;;;5013001;28;20080;-88
2021/06/04 00:25:37;;;;;;;10.43;5.32;;;18.50;37.10;;;;;;5013133;28;20075;-88
2021/06/04 00:28:03;;;;;;;10.07;4.97;;;18.40;37.20;;;;;;5012171;28;20482;-88
2021/06/04 00:30:29;;;;;;;9.60;4.82;;;18.40;37.30;;;;;;4998475;28;20038;-88
2021/06/04 00:32:55;;;;;;;10.25;5.50;;;18.40;37.50;;;;;;4998992;28;20057;-87
2021/06/04 00:35:24;;;;;;;8.77;5.13;;;18.40;37.60;;;;;;4999073;28;20428;-87
2021/06/04 00:37:52;;;;;;;9.27;5.40;;;18.50;37.90;;;;;;5016821;28;20026;-88
2021/06/04 00:40:27;;;;;;;9.00;5.05;;;18.50;37.90;;;;;;4998952;28;20026;-88
2021/06/04 00:42:54;;;;;;;11.48;5.45;;;18.50;38.10;;;;;;5015245;28;20022;-88
2021/06/04 00:45:30;;;;;;;9.85;4.97;;;18.50;38.20;;;;;;5015395;28;20030;-88
2021/06/04 00:47:59;;;;;;;8.80;4.93;;;18.50;38.30;;;;;;5015277;28;20042;-88
2021/06/04 00:50:45;;;;;;;9.80;4.93;;;18.50;38.20;;;;;;5022852;28;20396;-88
2021/06/04 00:53:11;;;;;;;8.77;4.93;;;18.50;38.60;;;;;;5015933;28;20046;-88
2021/06/04 00:55:39;;;;;;;10.13;6.05;;;18.50;38.50;;;;;;4998184;28;20018;-88
2021/06/04 00:58:12;;;;;;;9.10;5.30;;;18.50;38.50;;;;;;4998256;28;20030;-89
2021/06/04 01:00:57;;;;;;;8.65;4.82;;;18.40;38.50;;;;;;4998416;28;20125;-87
2021/06/04 01:03:28;;;;;;;10.65;4.72;;;18.40;39.00;;;;;;5016118;28;20026;-86
2021/06/04 01:06:19;;;;;;;8.63;4.97;;;18.40;39.00;;;;;;5015802;28;20061;-85
2021/06/04 01:09:02;;;;;;;8.75;4.80;;;18.40;39.30;;;;;;4997595;28;20486;-86
2021/06/04 01:11:44;;;;;;;10.15;5.10;;;18.40;39.40;;;;;;5028035;28;20026;-86
2021/06/04 01:14:24;;;;;;;8.90;4.85;;;18.40;39.40;;;;;;5022128;28;20049;-86
2021/06/04 01:17:43;;;;;;;10.05;4.85;;;18.40;39.40;;;;;;5014616;28;20049;-84
2021/06/04 01:20:23;;;;;;;9.68;5.28;;;18.40;39.50;;;;;;4976176;28;20026;-85
2021/06/04 01:23:08;;;;;;;9.85;5.35;;;18.50;39.90;;;;;;5015704;28;20061;-84
2021/06/04 01:26:03;;;;;;;9.00;4.90;;;18.50;39.80;;;;;;5015437;28;20072;-85
2021/06/04 01:28:49;;;;;;;10.20;5.07;;;18.50;39.90;;;;;;5014986;28;20386;-85
2021/06/04 01:31:21;;;;;;;12.10;5.30;;;18.40;39.90;;;;;;5015332;28;20026;-85
2021/06/04 01:34:17;;;;;;;9.65;5.32;;;18.40;40.00;;;;;;5015716;28;20026;-84
2021/06/04 01:36:53;;;;;;;10.55;5.95;;;18.40;40.20;;;;;;5000926;28;20070;-84
2021/06/04 01:39:30;;;;;;;9.77;5.97;;;18.40;40.40;;;;;;5014736;28;20066;-85
2021/06/04 01:41:58;;;;;;;11.48;5.72;;;18.40;40.50;;;;;;5015070;28;20022;-84
2021/06/04 01:44:46;;;;;;;10.75;5.63;;;18.50;40.50;;;;;;5015505;28;20049;-84
2021/06/04 01:47:26;;;;;;;10.02;5.53;;;18.50;40.50;;;;;;5016773;28;20030;-85
2021/06/04 01:49:53;;;;;;;11.45;5.53;;;18.50;40.60;;;;;;5021932;28;20466;-86
2021/06/04 01:52:28;;;;;;;8.48;5.05;;;18.60;40.60;;;;;;5017463;28;20041;-86
2021/06/04 01:55:07;;;;;;;;;;;18.50;40.70;;;;;;5021176;28;20034;-86
2021/06/04 01:57:41;;;;;;;10.50;6.28;;;18.50;40.40;;;;;;5013955;28;19909;-87
2021/06/04 02:00:15;;;;;;;9.33;5.50;;;18.50;40.60;;;;;;5013694;28;20054;-87
2021/06/04 02:02:41;;;;;;;;;;;18.50;40.80;;;;;;5015436;28;20085;-87
2021/06/04 02:05:09;;;;;;;9.98;5.97;;;18.50;40.50;;;;;;5014683;28;20373;-85
2021/06/04 02:07:35;;;;;;;10.73;5.90;;;18.50;40.90;;;;;;5014412;28;20096;-85
2021/06/04 02:10:09;;;;;;;10.43;6.05;;;18.50;40.90;;;;;;5014929;28;20533;-84
2021/06/04 02:12:35;;;;;;;11.88;5.25;;;18.50;41.20;;;;;;5014276;28;20426;-84
2021/06/04 02:15:09;;;;;;;9.85;5.63;;;18.50;41.20;;;;;;5014635;28;20083;-85
2021/06/04 02:17:58;;;;;;;8.50;5.00;;;18.40;41.40;;;;;;5014764;28;20030;-85
2021/06/04 02:20:34;;;;;;;9.98;5.63;;;18.40;41.20;;;;;;4996802;28;20018;-84
2021/06/04 02:23:23;;;;;;;8.90;5.20;;;18.40;41.60;;;;;;5013573;28;20083;-84
2021/06/04 02:26:10;;;;;;;9.02;5.40;;;18.40;41.70;;;;;;5014562;28;20083;-85
2021/06/04 02:28:42;;;;;;;9.65;5.38;;;18.40;41.90;;;;;;5014244;28;20062;-85
2021/06/04 02:31:42;;;;;;;11.02;5.07;;;18.40;41.90;;;;;;5014803;28;20021;-84
2021/06/04 02:34:19;;;;;;;9.20;5.30;;;18.30;42.10;;;;;;4993946;28;20088;-85
2021/06/04 02:36:54;;;;;;;9.50;5.30;;;18.30;42.10;;;;;;5013128;28;20062;-84
2021/06/04 02:39:41;;;;;;;9.00;5.18;;;18.30;42.40;;;;;;5013006;28;20381;-85
2021/06/04 02:42:12;;;;;;;8.77;4.82;;;18.20;42.50;;;;;;5014529;28;20030;-85
2021/06/04 02:44:53;;;;;;;10.02;5.13;;;18.30;42.50;;;;;;5014287;28;20028;-85
2021/06/04 02:47:25;;;;;;;10.98;5.20;;;18.30;42.80;;;;;;4996667;28;20041;-85
2021/06/04 02:50:02;;;;;;;8.35;4.93;;;18.30;42.70;;;;;;5013845;28;20036;-87
2021/06/04 02:52:45;;;;;;;9.18;5.18;;;18.20;42.90;;;;;;5003581;28;20054;-87
2021/06/04 02:55:27;;;;;;;9.05;5.22;;;18.30;43.00;;;;;;5012562;28;20030;-87
2021/06/04 02:57:59;;;;;;;10.60;5.95;;;18.20;43.20;;;;;;5014359;28;20469;-88
2021/06/04 03:00:42;;;;;;;9.70;5.45;;;18.20;43.20;;;;;;5020037;28;20026;-87
2021/06/04 03:03:18;;;;;;;9.20;5.60;;;18.20;43.10;;;;;;5013637;28;20022;-87
2021/06/04 03:05:53;;;;;;;12.07;5.47;;;18.20;43.30;;;;;;4994672;28;20046;-88
2021/06/04 03:08:22;;;;;;;9.70;5.55;;;18.20;43.30;;;;;;4993079;28;20493;-88
2021/06/04 03:14:26;;;;;;;9.35;5.20;;;18.20;44.10;;;;;;4978062;28;20439;-87
2021/06/04 03:17:00;;;;;;;9.15;5.20;;;18.20;43.30;;;;;;5009071;28;20420;-88
2021/06/04 03:19:26;;;;;;;8.43;4.60;;;18.20;43.60;;;;;;5012395;28;20057;-88
2021/06/04 03:22:03;;;;;;;9.68;5.40;;;18.20;43.60;;;;;;4997621;28;20055;-86
2021/06/04 03:24:35;;;;;;;8.35;5.03;;;18.20;43.70;;;;;;5009189;28;20541;-86
2021/06/04 03:27:03;;;;;;;12.52;5.00;;;18.20;43.80;;;;;;5008926;28;20501;-86
2021/06/04 03:29:29;;;;;;;8.80;4.72;;;18.30;43.90;;;;;;5009266;28;20026;-86
2021/06/04 03:31:59;;;;;;;8.07;4.53;;;18.30;44.50;;;;;;4993854;28;20482;-86
2021/06/04 03:34:26;;;;;;;7.68;4.30;;;18.30;43.90;;;;;;4994061;28;20101;-87
2021/06/04 03:36:54;;;;;;;8.02;4.15;;;18.40;44.10;;;;;;5009396;28;20030;-86
2021/06/04 03:39:27;;;;;;;8.38;4.35;;;18.40;44.10;;;;;;4996326;28;20026;-87
2021/06/04 03:42:00;;;;;;;8.50;4.32;;;18.40;44.10;;;;;;4991840;28;20050;-87
2021/06/04 03:44:31;;;;;;;8.10;4.00;;;18.40;44.10;;;;;;5008695;28;20022;-87
2021/06/04 03:47:14;;;;;;;7.53;4.10;;;18.50;44.30;;;;;;5007400;28;20029;-88
2021/06/04 03:49:46;;;;;;;7.75;3.97;;;18.50;44.30;;;;;;5008462;28;20038;-88
2021/06/04 03:52:52;;;;;;;9.20;4.03;;;18.50;44.20;;;;;;4992697;28;20455;-88
2021/06/04 03:55:33;;;;;;;8.35;4.15;;;18.60;44.40;;;;;;4995863;28;20034;-88
2021/06/04 03:58:28;;;;;;;8.15;3.92;;;18.60;44.50;;;;;;5009839;28;20026;-88
2021/06/04 04:01:33;;;;;;;8.73;4.28;;;18.70;44.70;;;;;;5001851;28;20030;-88
2021/06/04 04:04:15;;;;;;;7.68;3.92;;;18.70;44.60;;;;;;4989887;28;20455;-88
2021/06/04 04:06:57;;;;;;;9.27;4.40;;;18.70;44.60;;;;;;5001041;28;20051;-88
2021/06/04 04:09:46;;;;;;;8.73;4.25;;;18.70;44.70;;;;;;4993233;28;20034;-88
2021/06/04 04:12:12;;;;;;;7.90;4.25;;;18.80;44.70;;;;;;4984671;28;20025;-87
2021/06/04 04:14:40;;;;;;;8.65;3.53;;;18.80;44.70;;;;;;5008715;28;20034;-87
2021/06/04 04:17:06;;;;;;;8.27;4.03;;;18.80;44.70;;;;;;4977770;28;20031;-87
2021/06/04 04:19:32;;;;;;;7.75;3.92;;;18.80;44.70;;;;;;4960992;28;20450;-86
2021/06/04 04:21:58;;;;;;;8.88;4.30;;;18.80;44.80;;;;;;4992702;28;20031;-87
2021/06/04 04:24:29;;;;;;;7.75;3.80;;;18.90;44.90;;;;;;4997244;28;20023;-87
2021/06/04 04:26:57;;;;;;;6.90;3.60;;;18.80;44.90;;;;;;4994320;28;20035;-87
2021/06/04 04:29:23;;;;;;;6.53;3.40;;;18.90;44.90;;;;;;5013524;28;20026;-87
2021/06/04 04:31:53;;;;;;;6.68;3.50;;;18.90;45.60;;;;;;5015723;28;20022;-87
2021/06/04 04:34:23;;;;;;;8.07;3.80;;;19.00;45.10;;;;;;4979243;28;20373;-87
2021/06/04 04:36:51;;;;;;;7.60;3.35;;;19.00;45.20;;;;;;5010807;28;20030;-88
2021/06/04 04:39:26;;;;;;;6.75;3.38;;;19.00;45.20;;;;;;4993930;28;20027;-87
2021/06/04 04:41:52;;;;;;;7.78;3.20;;;19.10;45.30;;;;;;4994836;28;20076;-86
2021/06/04 04:44:23;;;;;;;7.65;3.60;;;19.10;45.30;;;;;;4992950;28;20068;-87
2021/06/04 04:46:49;;;;;;;7.75;3.35;;;19.20;45.30;;;;;;5008535;28;20025;-86
2021/06/04 04:49:15;;;;;;;6.95;3.30;;;19.30;45.40;;;;;;5010694;28;20398;-86
2021/06/04 04:51:40;;;;;;;7.55;3.40;;;19.30;45.30;;;;;;5008439;28;20022;-85
2021/06/04 04:54:07;;;;;;;7.25;3.58;;;19.40;45.30;;;;;;4995306;28;20033;-86
2021/06/04 04:56:34;;;;;;;6.20;3.50;;;19.30;45.20;;;;;;5009462;28;20026;-86
2021/06/04 04:58:59;;;;;;;6.78;3.28;;;19.40;45.30;;;;;;5008988;28;20026;-85
2021/06/04 05:01:25;;;;;;;7.47;3.60;;;19.30;45.20;;;;;;4993065;28;20068;-86
2021/06/04 05:03:51;;;;;;;5.25;3.08;;;19.40;45.40;;;;;;5009037;28;20068;-85
2021/06/04 05:06:17;;;;;;;9.90;3.50;;;19.30;45.30;;;;;;4996311;28;20039;-85
2021/06/04 05:08:45;;;;;;;6.35;3.25;;;19.40;45.30;;;;;;5007391;28;20026;-85
2021/06/04 05:11:10;;;;;;;6.80;3.45;;;19.40;45.40;;;;;;5009164;28;20498;-85
2021/06/04 05:13:36;;;;;;;7.82;3.58;;;19.40;45.50;;;;;;5008092;28;20041;-85
2021/06/04 05:16:04;;;;;;;7.50;3.47;;;19.50;45.50;;;;;;5012018;28;20081;-86
2021/06/04 05:18:31;;;;;;;7.25;3.53;;;19.50;45.60;;;;;;5013300;28;20114;-86
2021/06/04 05:20:57;;;;;;;7.50;3.75;;;19.50;45.70;;;;;;5012548;28;20033;-87
2021/06/04 05:23:23;;;;;;;6.85;3.28;;;19.50;45.70;;;;;;5013528;28;20014;-87
2021/06/04 05:25:51;;;;;;;6.63;3.45;;;19.60;45.70;;;;;;4994766;28;20017;-86
2021/06/04 05:28:20;;;;;;;6.35;3.60;;;19.60;45.80;;;;;;5012599;28;20484;-87
2021/06/04 05:30:47;;;;;;;8.10;3.65;;;19.60;45.90;;;;;;4997547;28;20033;-86
2021/06/04 05:33:22;;;;;;;9.52;3.85;;;19.60;46.00;;;;;;5011360;28;20022;-86
2021/06/04 05:35:49;;;;;;;6.72;3.38;;;19.70;46.30;;;;;;4993413;28;20042;-81
2021/06/04 05:38:15;;;;;;;7.60;3.50;;;19.70;46.30;;;;;;5011699;28;20018;-81
2021/06/04 05:40:44;;;;;;;8.20;3.45;;;19.70;46.30;;;;;;5012470;28;20071;-81
2021/06/04 05:43:13;;;;;;;6.53;3.22;;;19.90;46.70;;;;;;5007770;28;20417;-82
2021/06/04 05:45:41;;;;;;;6.63;3.33;;;20.00;46.80;;;;;;5011015;28;20663;-79
2021/06/04 05:48:08;;;;;;;7.30;3.30;;;20.00;46.80;;;;;;5011274;28;20417;-79
2021/06/04 05:50:38;;;;;;;7.63;3.50;;;20.20;46.90;;;;;;5005741;28;20382;-81
2021/06/04 05:53:06;;;;;;;7.15;3.53;;;20.30;46.90;;;;;;5012015;28;20026;-80
2021/06/04 05:55:34;;;;;;;7.75;3.72;;;20.50;46.90;;;;;;5013289;28;20101;-80
2021/06/04 05:58:00;;;;;;;7.72;3.40;;;20.50;46.90;;;;;;5011657;28;20014;-81
2021/06/04 06:00:40;;;;;;;6.22;3.38;;;20.70;46.80;;;;;;5012610;28;20528;-88
2021/06/04 06:09:51;;;;;;;9.48;3.33;;;20.90;46.70;;;;;;4925044;29;20568;-90
2021/06/04 06:12:17;;;;;;;6.75;3.30;;;21.00;46.50;;;;;;4971321;28;20071;-89
2021/06/04 06:15:09;;;;;;;7.15;3.53;;;21.00;46.60;;;;;;4978931;28;20022;-89
2021/06/04 06:27:02;;;;;;;9.80;3.30;;;21.30;46.70;;;;;;4999455;28;20033;-89
2021/06/04 07:14:34;;;;;;;7.90;3.00;;;23.10;46.70;;;;;;4969105;23;20049;31
2021/06/04 07:24:00;;;;;;;7.53;2.85;;;23.90;47.10;;;;;;4973610;28;20073;-93
2021/06/04 07:26:50;;;;;;;5.22;2.83;;;24.20;47.00;;;;;;4957120;28;20498;-88
2021/06/04 07:29:18;;;;;;;5.38;3.05;;;24.40;47.00;;;;;;4970896;28;20038;-90
2021/06/04 07:31:49;;;;;;;5.65;2.80;;;24.70;47.40;;;;;;4958338;28;21237;-89
2021/06/04 07:34:35;;;;;;;5.13;2.70;;;25.00;47.30;;;;;;4960764;28;20387;-89
2021/06/04 07:37:15;;;;;;;5.60;2.90;;;25.30;47.00;;;;;;4959421;28;20046;-89
2021/06/04 07:42:48;;;;;;;5.82;3.00;;;25.60;46.70;;;;;;5345502;22;20410;-83
2021/06/04 07:45:37;;;;;;;;;;;;;;;;;;;;;
2021/06/04 07:48:19;;;;;;;5.80;3.03;;;25.80;46.20;;;;;;4982763;28;20026;-88
2021/06/04 07:50:48;;;;;;;5.57;3.00;;;25.80;46.00;;;;;;4975847;28;20026;-86
2021/06/04 07:53:25;;;;;;;6.07;2.90;;;25.80;45.80;;;;;;4993493;28;20026;-92
2021/06/04 07:56:34;;;;;;;5.88;2.92;;;25.70;45.80;;;;;;4992583;28;20023;-89
2021/06/04 07:59:02;;;;;;;5.90;2.70;;;25.90;46.00;;;;;;4991262;28;20054;-88
2021/06/04 08:01:52;;;;;;;6.45;2.80;;;25.90;45.80;;;;;;4977941;28;20031;-88
2021/06/04 08:04:52;;;;;;;;;;;;;;;;;;;;;
2021/06/04 08:07:21;;;;;;;6.82;2.97;;;26.00;45.60;;;;;;4993313;28;20032;-87
2021/06/04 08:10:17;;;;;;;7.70;2.83;;;26.00;45.70;;;;;;4950137;28;20042;-87
2021/06/04 08:12:44;;;;;;;4.72;2.65;;;26.20;46.00;;;;;;4960693;28;20034;-85
2021/06/04 08:15:19;;;;;;;6.10;2.83;;;26.40;46.10;;;;;;4992433;28;20033;-87
2021/06/04 08:17:46;;;;;;;5.05;2.80;;;26.60;45.90;;;;;;4975758;28;20030;-85
2021/06/04 08:20:14;;;;;;;9.27;2.95;;;26.70;45.70;;;;;;4992965;28;20042;-87
2021/06/04 08:22:47;;;;;;;7.63;2.70;;;26.90;45.70;;;;;;4992667;28;20029;-87
2021/06/04 08:25:13;;;;;;;6.18;2.80;;;27.00;45.50;;;;;;4975640;28;20018;-87
2021/06/04 08:27:40;;;;;;;8.57;2.67;;;27.10;45.10;;;;;;4975408;28;20034;-86
2021/06/04 08:30:08;;;;;;;5.47;2.50;;;27.20;45.20;;;;;;4975300;28;20029;-86
2021/06/04 08:32:34;;;;;;;5.00;2.70;;;27.30;45.10;;;;;;4959050;28;20085;-85
2021/06/04 08:35:00;;;;;;;6.65;2.88;;;27.40;45.30;;;;;;4975254;28;20470;-85
2021/06/04 08:37:28;;;;;;;7.35;2.83;;;27.60;45.20;;;;;;5000622;28;20081;-85
2021/06/04 08:39:53;;;;;;;4.75;2.67;;;27.70;45.00;;;;;;4974079;28;20031;-85
2021/06/04 08:42:30;;;;;;;6.68;3.10;;;27.90;45.10;;;;;;4997177;28;20061;-85
2021/06/04 08:45:12;;;;;;;5.53;2.80;;;28.10;45.50;;;;;;4993458;28;20023;-85
2021/06/04 08:47:40;;;;;;;5.88;3.13;;;28.30;45.00;;;;;;4993581;28;20022;-85
2021/06/04 08:50:45;;;;;;;4.45;2.42;;;28.50;45.00;;;;;;5000119;28;20026;-82
2021/06/04 08:53:18;;;;;;;5.97;2.72;;;28.80;45.00;;;;;;4993623;28;20069;-85
2021/06/04 08:55:49;;;;;;;6.45;2.45;;;28.90;44.50;;;;;;5000511;28;20031;-87
2021/06/04 08:58:53;;;;;;;6.03;2.88;;;29.00;44.50;;;;;;4999586;28;20022;-86
2021/06/04 09:01:21;;;;;;;5.43;2.70;;;28.90;44.00;;;;;;4982014;28;20073;-87
2021/06/04 09:03:59;;;;;;;6.13;2.80;;;29.10;44.50;;;;;;4997320;28;20101;-86
2021/06/04 09:06:39;;;;;;;5.07;2.70;;;29.20;44.30;;;;;;4987722;28;20031;-86
2021/06/04 09:09:41;;;;;;;6.03;2.70;;;29.40;44.50;;;;;;4992693;28;20053;-87
2021/06/04 09:12:14;;;;;;;7.10;2.78;;;29.70;44.50;;;;;;4990780;28;20508;-87
2021/06/04 09:14:43;;;;;;;4.82;2.60;;;29.80;44.50;;;;;;4996437;28;20474;-86
2021/06/04 09:17:33;;;;;;;4.68;2.63;;;29.90;43.90;;;;;;4986320;28;20037;-86
2021/06/04 09:20:15;;;;;;;5.63;2.70;;;30.10;43.90;;;;;;4997724;28;20034;-86
2021/06/04 09:22:44;;;;;;;6.30;2.70;;;30.30;43.90;;;;;;4982631;28;20041;-87
2021/06/04 09:25:15;;;;;;;7.68;3.00;;;30.50;44.30;;;;;;4980461;28;20026;-86
2021/06/04 09:27:49;;;;;;;5.25;2.47;;;30.60;43.40;;;;;;5001404;28;20037;-87
2021/06/04 09:30:24;;;;;;;4.97;2.55;;;30.60;42.90;;;;;;4985393;28;20733;-86
2021/06/04 09:33:17;;;;;;;6.03;2.80;;;30.60;42.90;;;;;;5000472;28;20620;-88
2021/06/04 09:36:01;;;;;;;6.10;2.75;;;30.70;42.80;;;;;;4995846;28;20041;-87
2021/06/04 09:38:29;;;;;;;6.50;2.67;;;30.90;42.90;;;;;;4989490;28;20022;-87
2021/06/04 09:41:15;;;;;;;4.68;2.58;;;30.90;42.50;;;;;;4996063;28;20101;-85
2021/06/04 09:43:41;;;;;;;5.18;2.60;;;31.00;42.30;;;;;;4959076;28;20066;-86
2021/06/04 09:46:18;;;;;;;5.53;2.63;;;31.00;42.00;;;;;;4949723;28;20061;-89
2021/06/04 09:48:58;;;;;;;6.70;2.50;;;31.20;42.30;;;;;;4970628;28;20039;-87
2021/06/04 09:51:30;;;;;;;5.95;2.60;;;31.40;42.50;;;;;;4977052;28;20019;-89
2021/06/04 09:54:25;;;;;;;6.20;2.55;;;31.50;42.30;;;;;;4974956;28;20057;-88
2021/06/04 09:57:08;;;;;;;4.18;2.50;;;31.70;41.70;;;;;;4980811;28;20030;-88
2021/06/04 09:59:34;;;;;;;6.53;2.55;;;31.80;41.40;;;;;;4976622;28;20030;-88
2021/06/04 10:02:01;;;;;;;4.22;2.55;;;31.80;41.50;;;;;;4975448;28;20114;-87
2021/06/04 10:04:32;;;;;;;4.82;2.47;;;31.90;41.40;;;;;;4975591;28;20014;-88
2021/06/04 10:07:04;;;;;;;6.13;2.47;;;32.00;41.20;;;;;;4975606;28;20065;-89
2021/06/04 10:09:49;;;;;;;6.43;2.70;;;32.10;41.00;;;;;;4980181;28;20035;-88
2021/06/04 10:12:39;;;;;;;4.30;2.47;;;32.10;40.60;;;;;;4975333;28;20386;-89
2021/06/04 10:15:16;;;;;;;5.00;2.58;;;32.00;40.40;;;;;;4959670;28;20022;-88
2021/06/04 10:20:27;;;;;;;4.05;2.45;;;32.00;40.00;;;;;;4975265;28;20019;-88
2021/06/04 10:23:15;;;;;;;6.10;2.83;;;32.10;40.00;;;;;;4973637;28;20119;-87
2021/06/04 10:25:46;;;;;;;5.97;2.70;;;32.10;39.80;;;;;;4970510;28;20027;-86
2021/06/04 10:28:29;;;;;;;6.03;2.70;;;32.10;39.80;;;;;;4982190;28;20510;-87
2021/06/04 10:31:01;;;;;;;5.57;2.60;;;32.30;40.00;;;;;;4980775;28;20101;-87
2021/06/04 10:33:40;;;;;;;3.85;2.30;;;32.30;39.60;;;;;;4963921;28;20058;-86
2021/06/04 10:36:08;;;;;;;4.72;2.30;;;32.40;39.80;;;;;;4982068;28;20026;-86
2021/06/04 10:38:42;;;;;;;5.07;2.50;;;32.60;39.70;;;;;;4979854;28;20030;-86
2021/06/04 10:41:12;;;;;;;6.22;2.58;;;32.80;39.40;;;;;;4981555;28;20145;-86
2021/06/04 10:43:56;;;;;;;4.28;2.40;;;33.00;39.30;;;;;;4997403;28;20027;-86
2021/06/04 10:46:21;;;;;;;3.58;2.22;;;33.20;39.30;;;;;;5001533;28;20056;-86
2021/06/04 10:48:59;;;;;;;7.35;2.10;;;33.40;39.20;;;;;;5000078;28;20046;-86
2021/06/04 10:51:37;;;;;;;4.57;2.30;;;33.70;38.90;;;;;;4998921;28;20026;-86
2021/06/04 10:54:30;;;;;;;2.85;2.08;;;33.90;38.70;;;;;;4976478;28;20026;-88
2021/06/04 11:00:43;;;;;;;2.53;1.85;;;34.00;37.80;;;;;;4993202;28;20030;-85
2021/06/04 11:03:33;;;;;;;5.65;2.15;;;34.20;38.00;;;;;;4992680;28;20137;-85
2021/06/04 11:06:13;;;;;;;5.10;2.05;;;34.40;37.90;;;;;;4984247;28;20018;-85
2021/06/04 11:08:52;;;;;;;4.03;2.50;;;34.40;36.80;;;;;;4976722;28;20483;-85
2021/06/04 11:11:26;;;;;;;2.22;1.92;;;34.20;36.90;;;;;;4993548;28;20098;-84
2021/06/04 11:14:23;;;;;;;3.95;2.15;;;34.30;36.60;;;;;;4988068;28;20061;-85
2021/06/04 11:17:23;;;;;;;3.90;2.35;;;34.70;37.20;;;;;;4989167;28;20050;-87
2021/06/04 11:20:18;;;;;;;5.50;2.10;;;35.00;36.80;;;;;;4992143;28;20023;-87
2021/06/04 11:23:02;;;;;;;3.63;2.00;;;35.30;36.60;;;;;;4990016;28;20030;-87
2021/06/04 11:26:26;;;;;;;4.43;2.03;;;35.50;36.20;;;;;;4993609;28;20026;-89
2021/06/04 11:29:36;;;;;;;2.42;1.90;;;35.90;37.10;;;;;;4976069;28;20368;-88
2021/06/04 11:32:11;;;;;;;2.15;1.75;;;36.70;36.80;;;;;;4989384;28;20030;-88
2021/06/04 11:34:53;;;;;;;2.95;1.80;;;37.40;36.40;;;;;;4976354;28;20375;-87
2021/06/04 11:37:37;;;;;;;4.97;1.98;;;37.70;35.40;;;;;;4992825;28;20490;-87
2021/06/04 11:40:15;;;;;;;;;;;37.90;35.00;;;;;;4998742;28;20475;-87
2021/06/04 11:43:07;;;;;;;2.67;1.90;;;38.20;35.80;;;;;;4993827;28;19929;-87
2021/06/04 11:45:35;;;;;;;2.83;1.90;;;38.80;35.30;;;;;;4993205;28;20061;-88
2021/06/04 11:48:25;;;;;;;3.20;1.90;;;39.10;34.50;;;;;;4976703;28;20120;-87
2021/06/04 11:51:19;;;;;;;3.42;1.92;;;39.40;34.50;;;;;;4989094;28;20026;-88
2021/06/04 11:53:53;;;;;;;3.13;1.90;;;39.50;34.00;;;;;;4976328;28;20022;-87
2021/06/04 11:56:37;;;;;;;2.40;1.70;;;39.60;33.40;;;;;;4993489;28;20478;-88
2021/06/04 11:59:06;;;;;;;3.08;1.88;;;39.50;32.80;;;;;;4993568;28;20030;-87
2021/06/04 12:01:39;;;;;;;2.90;1.85;;;39.60;32.30;;;;;;4975802;28;20045;-86
2021/06/04 12:04:14;;;;;;;2.35;1.90;;;39.60;32.00;;;;;;4970693;28;20030;-87
2021/06/04 12:06:51;;;;;;;2.33;1.90;;;39.50;31.10;;;;;;4992816;28;20381;-87
2021/06/04 12:09:32;;;;;;;2.53;1.90;;;39.50;31.50;;;;;;4979735;28;20381;-87
2021/06/04 12:12:25;;;;;;;3.92;2.10;;;40.90;34.60;;;;;;4992998;28;20092;-87
2021/06/04 12:14:54;;;;;;;;;;;42.30;34.10;;;;;;4973386;28;20064;-87
2021/06/04 12:17:36;;;;;;;3.20;2.00;;;42.70;33.10;;;;;;4975768;28;19905;-87
2021/06/04 12:20:26;;;;;;;3.65;2.15;;;43.70;34.10;;;;;;4992736;28;20061;-84
2021/06/04 12:23:03;;;;;;;2.88;2.15;;;45.00;34.10;;;;;;4992440;28;20029;-87
2021/06/04 12:25:57;;;;;;;3.60;2.17;;;46.60;34.30;;;;;;4996663;28;20034;-87
2021/06/04 12:28:23;;;;;;;3.40;2.00;;;47.80;32.40;;;;;;4996737;28;20096;-87
2021/06/04 12:30:51;;;;;;;5.45;2.10;;;47.80;30.10;;;;;;4996823;28;20026;-87
2021/06/04 12:33:53;;;;;;;2.78;2.10;;;47.80;30.30;;;;;;4996886;28;20018;-87
2021/06/04 12:36:45;;;;;;;1.90;1.80;;;48.20;30.30;;;;;;4934722;28;20541;-87
2021/06/04 12:39:43;;;;;;;1.80;1.70;;;48.20;29.20;;;;;;4988083;28;20045;-87
2021/06/04 12:42:36;;;;;;;2.83;2.05;;;47.50;28.00;;;;;;4965707;28;20217;-87
2021/06/04 12:45:10;;;;;;;3.35;2.03;;;46.90;28.20;;;;;;4992637;28;20018;-87
2021/06/04 12:47:56;;;;;;;2.72;1.85;;;47.60;28.30;;;;;;4973070;28;20027;-87
2021/06/04 12:50:34;;;;;;;9.50;2.15;;;47.10;26.50;;;;;;4996531;28;20026;-87
2021/06/04 12:53:11;;;;;;;3.05;1.90;;;45.80;25.70;;;;;;4996384;28;20023;-87
2021/06/04 12:55:38;;;;;;;3.40;1.90;;;44.90;25.50;;;;;;4995840;28;20019;-86
2021/06/04 12:58:25;;;;;;;2.13;1.70;;;45.10;27.00;;;;;;4996809;28;20062;-86
2021/06/04 13:00:50;;;;;;;2.97;1.90;;;45.00;26.00;;;;;;4996588;28;20018;-86
2021/06/04 13:03:24;;;;;;;2.47;1.83;;;44.50;25.30;;;;;;4996470;28;20034;-86
2021/06/04 13:05:52;;;;;;;2.00;1.80;;;43.80;24.90;;;;;;4996620;28;20457;-86
2021/06/04 13:08:23;;;;;;;1.98;1.80;;;43.20;25.10;;;;;;4997511;28;20022;-86
2021/06/04 13:10:56;;;;;;;2.95;1.92;;;43.20;25.50;;;;;;4994983;28;20076;-86
2021/06/04 13:13:32;;;;;;;3.05;1.80;;;44.10;26.40;;;;;;4992062;28;20018;-87
2021/06/04 13:16:15;;;;;;;7.63;2.17;;;43.80;24.60;;;;;;4996266;28;20040;-86
2021/06/04 13:18:41;;;;;;;3.40;1.70;;;42.90;24.20;;;;;;4995991;28;20014;-86
2021/06/04 13:21:29;;;;;;;2.88;1.92;;;42.00;23.90;;;;;;4998136;28;20517;-87
2021/06/04 13:24:14;;;;;;;3.92;2.00;;;41.00;23.70;;;;;;4970684;28;20122;-86
2021/06/04 13:26:48;;;;;;;7.53;2.00;;;40.00;23.50;;;;;;4974017;28;20026;-87
2021/06/04 13:29:31;;;;;;;4.97;1.90;;;39.20;23.60;;;;;;4978844;28;20034;-85
2021/06/04 13:32:01;;;;;;;;;;;38.60;23.60;;;;;;4978345;28;20014;-85
2021/06/04 13:34:54;;;;;;;4.38;2.08;;;38.20;23.70;;;;;;4979911;28;20380;-86
2021/06/04 13:37:25;;;;;;;4.40;1.90;;;37.80;23.50;;;;;;4977222;28;20098;-85
2021/06/04 13:39:51;;;;;;;2.75;1.98;;;37.40;23.60;;;;;;4996193;28;20529;-85
2021/06/04 13:42:28;;;;;;;2.55;1.80;;;37.10;23.60;;;;;;4961480;28;20047;-85
2021/06/04 13:44:56;;;;;;;8.18;2.38;;;36.60;23.30;;;;;;4995335;28;20034;-84
2021/06/04 13:47:46;;;;;;;5.43;2.20;;;36.00;22.90;;;;;;4995935;28;20455;-85
2021/06/04 13:50:17;;;;;;;4.53;1.88;;;35.20;23.20;;;;;;4995224;28;20030;-85
2021/06/04 13:53:24;;;;;;;5.20;2.08;;;34.50;23.30;;;;;;4989510;28;20026;-85
2021/06/04 13:56:26;;;;;;;3.17;2.03;;;33.80;23.40;;;;;;4972806;28;20589;-85
2021/06/04 13:59:17;;;;;;;4.72;2.15;;;33.30;23.80;;;;;;4976468;28;20466;-87
2021/06/04 14:01:54;;;;;;;3.92;2.05;;;32.90;24.00;;;;;;4977450;28;20022;-87
2021/06/04 14:04:45;;;;;;;4.68;2.30;;;32.50;24.30;;;;;;4994997;28;20134;-87
2021/06/04 14:07:25;;;;;;;5.25;2.40;;;32.30;24.50;;;;;;4993220;28;20026;-88
2021/06/04 14:10:17;;;;;;;6.78;2.20;;;31.80;24.70;;;;;;4998339;28;20518;-88
2021/06/04 14:12:45;;;;;;;3.13;1.77;;;31.50;25.10;;;;;;4994763;28;20026;-87
2021/06/04 14:15:31;;;;;;;4.65;2.30;;;31.30;25.40;;;;;;4977531;28;20026;-87
2021/06/04 14:17:57;;;;;;;5.50;2.30;;;31.10;25.90;;;;;;4994408;28;20018;-87
2021/06/04 14:20:40;;;;;;;6.57;2.38;;;31.00;25.90;;;;;;4994713;28;20029;-87
2021/06/04 14:23:24;;;;;;;5.38;2.00;;;30.90;26.20;;;;;;4994520;28;20030;-87
2021/06/04 14:25:51;;;;;;;3.10;1.90;;;30.80;26.40;;;;;;4974795;28;20088;-88
2021/06/04 14:28:36;;;;;;;4.35;2.10;;;30.80;26.70;;;;;;4977349;28;20130;-91
2021/06/04 14:31:08;;;;;;;3.53;2.05;;;30.90;27.10;;;;;;4977820;28;20491;-89
2021/06/04 14:37:11;;;;;;;5.75;2.28;;;31.00;27.00;;;;;;4991541;28;20069;-89
2021/06/04 14:40:23;;;;;;;3.22;1.98;;;30.90;27.30;;;;;;4994735;28;20029;-89
2021/06/04 14:42:50;;;;;;;4.35;2.20;;;30.80;27.20;;;;;;4977289;28;20077;-90
2021/06/04 14:45:19;;;;;;;4.80;2.35;;;30.90;27.60;;;;;;4995522;28;20082;-92
2021/06/04 14:47:45;;;;;;;4.07;2.22;;;31.00;27.90;;;;;;4993304;28;20077;-91
2021/06/04 14:50:22;;;;;;;3.03;2.00;;;31.00;28.00;;;;;;4966268;28;20034;-90
2021/06/04 14:52:48;;;;;;;2.80;1.88;;;31.00;27.80;;;;;;4983376;28;20066;-91
2021/06/04 14:55:16;;;;;;;4.75;2.17;;;30.90;27.90;;;;;;4980634;28;20022;-88
2021/06/04 14:57:43;;;;;;;4.05;2.08;;;30.90;28.10;;;;;;4996781;28;20033;-90
2021/06/04 15:00:11;;;;;;;4.78;2.50;;;31.00;28.30;;;;;;4973723;28;20093;-90
2021/06/04 15:02:36;;;;;;;3.97;2.13;;;31.10;28.50;;;;;;4976352;28;20368;-90